sensor_id;sensor_type;location;lat;lon;timestamp;temperature;humidity
32366;DHT22;18837;46.832;16.838;2022-07-30T00:01:03;27.80;59.00
32366;DHT22;18837;46.832;16.838;2022-07-30T00:03:28;27.80;58.90
32366;DHT22;18837;46.832;16.838;2022-07-30T00:05:55;27.80;58.90
32366;DHT22;18837;46.832;16.838;2022-07-30T00:08:21;27.80;59.00
32366;DHT22;18837;46.832;16.838;2022-07-30T00:10:47;27.80;59.00
32366;DHT22;18837;46.832;16.838;2022-07-30T00:13:13;27.80;59.00
32366;DHT22;18837;46.832;16.838;2022-07-30T00:15:51;27.80;59.00
32366;DHT22;18837;46.832;16.838;2022-07-30T00:21:22;27.70;59.00
32366;DHT22;18837;46.832;16.838;2022-07-30T00:23:48;27.70;59.10
32366;DHT22;18837;46.832;16.838;2022-07-30T00:26:13;27.70;59.10
32366;DHT22;18837;46.832;16.838;2022-07-30T00:28:39;27.70;59.00
32366;DHT22;18837;46.832;16.838;2022-07-30T00:31:05;27.70;59.10
32366;DHT22;18837;46.832;16.838;2022-07-30T00:33:30;27.70;59.20
32366;DHT22;18837;46.832;16.838;2022-07-30T00:36:01;27.60;59.20
32366;DHT22;18837;46.832;16.838;2022-07-30T00:38:27;27.60;59.20
32366;DHT22;18837;46.832;16.838;2022-07-30T00:40:52;27.60;59.30
32366;DHT22;18837;46.832;16.838;2022-07-30T00:43:18;27.60;59.30
32366;DHT22;18837;46.832;16.838;2022-07-30T00:45:44;27.60;59.20
32366;DHT22;18837;46.832;16.838;2022-07-30T00:48:12;27.60;59.40
32366;DHT22;18837;46.832;16.838;2022-07-30T00:50:50;27.60;59.30
32366;DHT22;18837;46.832;16.838;2022-07-30T00:53:35;27.50;59.30
32366;DHT22;18837;46.832;16.838;2022-07-30T00:56:10;27.50;59.30
32366;DHT22;18837;46.832;16.838;2022-07-30T00:58:36;27.50;59.60
32366;DHT22;18837;46.832;16.838;2022-07-30T01:01:01;27.50;59.50
32366;DHT22;18837;46.832;16.838;2022-07-30T01:03:27;27.50;59.50
32366;DHT22;18837;46.832;16.838;2022-07-30T01:05:53;27.40;59.50
32366;DHT22;18837;46.832;16.838;2022-07-30T01:08:18;27.40;59.60
32366;DHT22;18837;46.832;16.838;2022-07-30T01:10:50;27.40;59.60
32366;DHT22;18837;46.832;16.838;2022-07-30T01:13:15;27.40;59.50
32366;DHT22;18837;46.832;16.838;2022-07-30T01:15:42;27.40;59.70
32366;DHT22;18837;46.832;16.838;2022-07-30T01:18:10;27.40;59.60
32366;DHT22;18837;46.832;16.838;2022-07-30T01:20:47;27.40;59.60
32366;DHT22;18837;46.832;16.838;2022-07-30T01:23:24;27.40;59.60
32366;DHT22;18837;46.832;16.838;2022-07-30T01:26:24;27.30;59.60
32366;DHT22;18837;46.832;16.838;2022-07-30T01:29:03;27.30;59.50
32366;DHT22;18837;46.832;16.838;2022-07-30T01:31:30;27.30;59.70
32366;DHT22;18837;46.832;16.838;2022-07-30T01:33:59;27.30;59.90
32366;DHT22;18837;46.832;16.838;2022-07-30T01:36:26;27.30;59.80
32366;DHT22;18837;46.832;16.838;2022-07-30T01:38:53;27.30;59.50
32366;DHT22;18837;46.832;16.838;2022-07-30T01:41:20;27.30;59.80
32366;DHT22;18837;46.832;16.838;2022-07-30T01:43:51;27.30;59.70
32366;DHT22;18837;46.832;16.838;2022-07-30T01:46:18;27.30;59.80
32366;DHT22;18837;46.832;16.838;2022-07-30T01:48:44;27.20;60.50
32366;DHT22;18837;46.832;16.838;2022-07-30T01:51:12;27.20;59.90
32366;DHT22;18837;46.832;16.838;2022-07-30T01:53:39;27.20;59.70
32366;DHT22;18837;46.832;16.838;2022-07-30T01:56:07;27.20;59.60
32366;DHT22;18837;46.832;16.838;2022-07-30T01:58:35;27.20;59.90
32366;DHT22;18837;46.832;16.838;2022-07-30T02:01:20;27.20;59.80
32366;DHT22;18837;46.832;16.838;2022-07-30T02:03:59;27.20;59.90
32366;DHT22;18837;46.832;16.838;2022-07-30T02:06:31;27.20;59.90
32366;DHT22;18837;46.832;16.838;2022-07-30T02:09:02;27.20;59.90
32366;DHT22;18837;46.832;16.838;2022-07-30T02:11:32;27.20;60.00
32366;DHT22;18837;46.832;16.838;2022-07-30T02:14:29;27.10;59.90
32366;DHT22;18837;46.832;16.838;2022-07-30T02:16:59;27.10;59.90
32366;DHT22;18837;46.832;16.838;2022-07-30T02:19:37;27.10;59.90
32366;DHT22;18837;46.832;16.838;2022-07-30T02:22:06;27.10;60.00
32366;DHT22;18837;46.832;16.838;2022-07-30T02:24:33;27.10;60.00
32366;DHT22;18837;46.832;16.838;2022-07-30T02:27:04;27.10;60.20
32366;DHT22;18837;46.832;16.838;2022-07-30T02:29:33;27.10;60.00
32366;DHT22;18837;46.832;16.838;2022-07-30T02:32:01;27.10;60.10
32366;DHT22;18837;46.832;16.838;2022-07-30T02:34:55;27.10;60.30
32366;DHT22;18837;46.832;16.838;2022-07-30T02:37:59;27.10;60.00
32366;DHT22;18837;46.832;16.838;2022-07-30T02:40:35;27.10;60.10
32366;DHT22;18837;46.832;16.838;2022-07-30T02:43:04;27.00;60.00
32366;DHT22;18837;46.832;16.838;2022-07-30T02:45:30;27.00;60.10
32366;DHT22;18837;46.832;16.838;2022-07-30T02:48:00;27.00;60.10
32366;DHT22;18837;46.832;16.838;2022-07-30T02:50:27;27.00;60.20
32366;DHT22;18837;46.832;16.838;2022-07-30T02:53:05;27.00;61.10
32366;DHT22;18837;46.832;16.838;2022-07-30T02:55:32;27.00;60.50
32366;DHT22;18837;46.832;16.838;2022-07-30T02:58:05;27.00;60.40
32366;DHT22;18837;46.832;16.838;2022-07-30T03:00:31;27.00;60.30
32366;DHT22;18837;46.832;16.838;2022-07-30T03:02:58;26.90;60.20
32366;DHT22;18837;46.832;16.838;2022-07-30T03:05:25;26.90;60.20
32366;DHT22;18837;46.832;16.838;2022-07-30T03:08:00;26.90;60.50
32366;DHT22;18837;46.832;16.838;2022-07-30T03:10:52;26.90;60.40
32366;DHT22;18837;46.832;16.838;2022-07-30T03:57:12;26.70;60.60
32366;DHT22;18837;46.832;16.838;2022-07-30T03:59:38;26.70;61.00
32366;DHT22;18837;46.832;16.838;2022-07-30T04:02:16;26.70;61.00
32366;DHT22;18837;46.832;16.838;2022-07-30T04:07:26;26.70;60.60
32366;DHT22;18837;46.832;16.838;2022-07-30T04:09:51;26.70;60.90
32366;DHT22;18837;46.832;16.838;2022-07-30T04:12:17;26.70;61.10
32366;DHT22;18837;46.832;16.838;2022-07-30T04:14:43;26.70;60.80
32366;DHT22;18837;46.832;16.838;2022-07-30T04:18:00;26.70;61.10
32366;DHT22;18837;46.832;16.838;2022-07-30T04:21:09;26.70;60.80
32366;DHT22;18837;46.832;16.838;2022-07-30T04:23:58;26.70;60.60
32366;DHT22;18837;46.832;16.838;2022-07-30T04:26:27;26.60;61.10
32366;DHT22;18837;46.832;16.838;2022-07-30T04:28:53;26.60;61.00
32366;DHT22;18837;46.832;16.838;2022-07-30T04:31:19;26.60;61.30
32366;DHT22;18837;46.832;16.838;2022-07-30T04:33:46;26.60;61.00
32366;DHT22;18837;46.832;16.838;2022-07-30T04:36:20;26.60;61.20
32366;DHT22;18837;46.832;16.838;2022-07-30T04:38:46;26.60;61.30
32366;DHT22;18837;46.832;16.838;2022-07-30T04:41:12;26.60;61.50
32366;DHT22;18837;46.832;16.838;2022-07-30T04:43:38;26.50;61.50
32366;DHT22;18837;46.832;16.838;2022-07-30T04:46:04;26.50;61.50
32366;DHT22;18837;46.832;16.838;2022-07-30T04:48:29;26.50;61.60
32366;DHT22;18837;46.832;16.838;2022-07-30T04:50:59;26.50;61.70
32366;DHT22;18837;46.832;16.838;2022-07-30T04:53:51;26.50;61.70
32366;DHT22;18837;46.832;16.838;2022-07-30T04:56:32;26.40;61.70
32366;DHT22;18837;46.832;16.838;2022-07-30T04:58:58;26.40;61.80
32366;DHT22;18837;46.832;16.838;2022-07-30T05:01:29;26.40;62.20
32366;DHT22;18837;46.832;16.838;2022-07-30T05:03:57;26.40;62.40
32366;DHT22;18837;46.832;16.838;2022-07-30T05:06:24;26.40;62.20
32366;DHT22;18837;46.832;16.838;2022-07-30T05:08:51;26.40;62.30
32366;DHT22;18837;46.832;16.838;2022-07-30T05:11:16;26.40;62.30
32366;DHT22;18837;46.832;16.838;2022-07-30T05:13:44;26.40;62.30
32366;DHT22;18837;46.832;16.838;2022-07-30T05:16:10;26.30;62.40
32366;DHT22;18837;46.832;16.838;2022-07-30T05:18:36;26.30;62.50
32366;DHT22;18837;46.832;16.838;2022-07-30T05:21:03;26.30;62.30
32366;DHT22;18837;46.832;16.838;2022-07-30T05:23:29;26.30;62.50
32366;DHT22;18837;46.832;16.838;2022-07-30T05:25:55;26.30;62.40
32366;DHT22;18837;46.832;16.838;2022-07-30T05:28:20;26.30;62.60
32366;DHT22;18837;46.832;16.838;2022-07-30T05:30:47;26.30;62.60
32366;DHT22;18837;46.832;16.838;2022-07-30T05:33:13;26.30;63.10
32366;DHT22;18837;46.832;16.838;2022-07-30T05:35:39;26.20;63.00
32366;DHT22;18837;46.832;16.838;2022-07-30T05:38:04;26.20;63.00
32366;DHT22;18837;46.832;16.838;2022-07-30T05:40:30;26.20;62.90
32366;DHT22;18837;46.832;16.838;2022-07-30T05:42:56;26.20;63.20
32366;DHT22;18837;46.832;16.838;2022-07-30T05:45:21;26.20;63.10
32366;DHT22;18837;46.832;16.838;2022-07-30T05:47:47;26.20;63.40
32366;DHT22;18837;46.832;16.838;2022-07-30T05:50:13;26.20;63.40
32366;DHT22;18837;46.832;16.838;2022-07-30T05:52:38;26.20;63.60
32366;DHT22;18837;46.832;16.838;2022-07-30T05:55:04;26.20;63.70
32366;DHT22;18837;46.832;16.838;2022-07-30T05:57:34;26.10;63.60
32366;DHT22;18837;46.832;16.838;2022-07-30T06:00:02;26.10;63.90
32366;DHT22;18837;46.832;16.838;2022-07-30T06:02:28;26.10;63.80
32366;DHT22;18837;46.832;16.838;2022-07-30T06:04:53;26.10;63.80
32366;DHT22;18837;46.832;16.838;2022-07-30T06:07:19;26.10;64.00
32366;DHT22;18837;46.832;16.838;2022-07-30T06:09:45;26.10;63.90
32366;DHT22;18837;46.832;16.838;2022-07-30T06:12:11;26.10;63.80
32366;DHT22;18837;46.832;16.838;2022-07-30T06:14:36;26.10;64.00
32366;DHT22;18837;46.832;16.838;2022-07-30T06:17:02;26.10;63.80
32366;DHT22;18837;46.832;16.838;2022-07-30T06:19:28;26.10;63.90
32366;DHT22;18837;46.832;16.838;2022-07-30T06:21:54;26.00;63.80
32366;DHT22;18837;46.832;16.838;2022-07-30T06:24:19;26.00;63.90
32366;DHT22;18837;46.832;16.838;2022-07-30T06:26:45;26.10;64.70
32366;DHT22;18837;46.832;16.838;2022-07-30T06:29:11;26.00;64.20
32366;DHT22;18837;46.832;16.838;2022-07-30T06:31:37;26.00;64.20
32366;DHT22;18837;46.832;16.838;2022-07-30T06:34:04;26.00;64.80
32366;DHT22;18837;46.832;16.838;2022-07-30T06:36:30;26.00;64.00
32366;DHT22;18837;46.832;16.838;2022-07-30T06:38:55;26.00;64.40
32366;DHT22;18837;46.832;16.838;2022-07-30T07:52:09;26.00;64.60
32366;DHT22;18837;46.832;16.838;2022-07-30T07:54:35;26.00;65.20
32366;DHT22;18837;46.832;16.838;2022-07-30T07:57:01;25.90;65.40
32366;DHT22;18837;46.832;16.838;2022-07-30T07:59:28;25.90;65.40
32366;DHT22;18837;46.832;16.838;2022-07-30T08:02:00;25.90;65.40
32366;DHT22;18837;46.832;16.838;2022-07-30T08:04:25;25.80;65.80
32366;DHT22;18837;46.832;16.838;2022-07-30T08:06:51;25.80;65.40
32366;DHT22;18837;46.832;16.838;2022-07-30T08:09:17;25.80;65.50
32366;DHT22;18837;46.832;16.838;2022-07-30T08:11:43;25.80;65.80
32366;DHT22;18837;46.832;16.838;2022-07-30T08:14:08;25.70;65.90
32366;DHT22;18837;46.832;16.838;2022-07-30T08:16:46;25.70;66.10
32366;DHT22;18837;46.832;16.838;2022-07-30T08:19:30;25.70;66.20
32366;DHT22;18837;46.832;16.838;2022-07-30T08:21:59;25.70;66.40
32366;DHT22;18837;46.832;16.838;2022-07-30T08:24:25;25.70;66.20
32366;DHT22;18837;46.832;16.838;2022-07-30T08:26:51;25.70;66.40
32366;DHT22;18837;46.832;16.838;2022-07-30T08:29:17;25.70;66.10
32366;DHT22;18837;46.832;16.838;2022-07-30T08:31:42;25.70;65.90
32366;DHT22;18837;46.832;16.838;2022-07-30T08:34:08;25.70;66.00
32366;DHT22;18837;46.832;16.838;2022-07-30T08:36:34;25.70;66.40
32366;DHT22;18837;46.832;16.838;2022-07-30T08:38:59;25.70;66.20
32366;DHT22;18837;46.832;16.838;2022-07-30T08:41:25;25.70;66.30
32366;DHT22;18837;46.832;16.838;2022-07-30T08:43:52;25.70;66.50
32366;DHT22;18837;46.832;16.838;2022-07-30T08:46:21;25.70;66.30
32366;DHT22;18837;46.832;16.838;2022-07-30T08:48:48;25.70;66.50
32366;DHT22;18837;46.832;16.838;2022-07-30T08:51:16;25.70;66.50
32366;DHT22;18837;46.832;16.838;2022-07-30T08:53:43;25.70;66.30
32366;DHT22;18837;46.832;16.838;2022-07-30T08:56:11;25.70;66.10
32366;DHT22;18837;46.832;16.838;2022-07-30T08:58:37;25.60;66.20
32366;DHT22;18837;46.832;16.838;2022-07-30T09:01:04;25.60;66.10
32366;DHT22;18837;46.832;16.838;2022-07-30T09:03:31;25.60;66.40
32366;DHT22;18837;46.832;16.838;2022-07-30T09:06:17;25.60;66.10
32366;DHT22;18837;46.832;16.838;2022-07-30T09:09:06;25.60;65.10
32366;DHT22;18837;46.832;16.838;2022-07-30T09:11:52;25.70;65.10
32366;DHT22;18837;46.832;16.838;2022-07-30T09:14:18;25.70;66.10
32366;DHT22;18837;46.832;16.838;2022-07-30T09:16:44;25.60;65.70
32366;DHT22;18837;46.832;16.838;2022-07-30T09:19:20;25.60;66.30
32366;DHT22;18837;46.832;16.838;2022-07-30T09:21:59;25.60;65.80
32366;DHT22;18837;46.832;16.838;2022-07-30T09:24:43;25.60;66.80
32366;DHT22;18837;46.832;16.838;2022-07-30T09:27:09;25.50;66.90
32366;DHT22;18837;46.832;16.838;2022-07-30T09:29:35;25.50;67.10
32366;DHT22;18837;46.832;16.838;2022-07-30T09:32:02;25.50;67.10
32366;DHT22;18837;46.832;16.838;2022-07-30T09:34:30;25.50;67.20
32366;DHT22;18837;46.832;16.838;2022-07-30T09:36:57;25.50;67.20
32366;DHT22;18837;46.832;16.838;2022-07-30T09:39:51;25.50;67.20
32366;DHT22;18837;46.832;16.838;2022-07-30T09:42:25;25.50;65.80
32366;DHT22;18837;46.832;16.838;2022-07-30T09:45:13;25.40;67.40
32366;DHT22;18837;46.832;16.838;2022-07-30T09:47:43;25.40;67.80
32366;DHT22;18837;46.832;16.838;2022-07-30T09:50:11;25.40;67.30
32366;DHT22;18837;46.832;16.838;2022-07-30T09:52:39;25.40;67.30
32366;DHT22;18837;46.832;16.838;2022-07-30T09:55:05;25.40;67.50
32366;DHT22;18837;46.832;16.838;2022-07-30T09:57:31;25.40;66.90
32366;DHT22;18837;46.832;16.838;2022-07-30T10:00:18;25.40;67.30
32366;DHT22;18837;46.832;16.838;2022-07-30T10:02:44;25.40;67.60
32366;DHT22;18837;46.832;16.838;2022-07-30T10:05:14;25.50;66.70
32366;DHT22;18837;46.832;16.838;2022-07-30T10:07:47;25.50;67.10
32366;DHT22;18837;46.832;16.838;2022-07-30T10:10:15;25.50;67.70
32366;DHT22;18837;46.832;16.838;2022-07-30T10:12:41;25.50;67.20
32366;DHT22;18837;46.832;16.838;2022-07-30T10:15:26;25.50;66.80
32366;DHT22;18837;46.832;16.838;2022-07-30T10:20:55;25.50;65.50
32366;DHT22;18837;46.832;16.838;2022-07-30T10:23:22;25.60;67.40
32366;DHT22;18837;46.832;16.838;2022-07-30T10:25:49;25.50;67.20
32366;DHT22;18837;46.832;16.838;2022-07-30T10:28:19;25.50;67.40
32366;DHT22;18837;46.832;16.838;2022-07-30T10:30:48;25.50;66.90
32366;DHT22;18837;46.832;16.838;2022-07-30T10:33:14;25.50;67.20
32366;DHT22;18837;46.832;16.838;2022-07-30T10:36:12;25.50;67.10
32366;DHT22;18837;46.832;16.838;2022-07-30T10:38:39;25.50;67.00
32366;DHT22;18837;46.832;16.838;2022-07-30T10:41:32;25.50;67.30
32366;DHT22;18837;46.832;16.838;2022-07-30T10:47:06;25.50;65.70
32366;DHT22;18837;46.832;16.838;2022-07-30T11:02:06;25.50;67.50
32366;DHT22;18837;46.832;16.838;2022-07-30T11:04:32;25.50;66.30
32366;DHT22;18837;46.832;16.838;2022-07-30T11:09:47;25.50;66.40
32366;DHT22;18837;46.832;16.838;2022-07-30T11:15:11;25.50;66.50
32366;DHT22;18837;46.832;16.838;2022-07-30T11:17:57;25.50;67.80
32366;DHT22;18837;46.832;16.838;2022-07-30T11:20:23;25.50;68.40
32366;DHT22;18837;46.832;16.838;2022-07-30T11:22:49;25.50;67.50
32366;DHT22;18837;46.832;16.838;2022-07-30T11:27:50;25.70;67.90
32366;DHT22;18837;46.832;16.838;2022-07-30T11:35:28;25.90;66.70
32366;DHT22;18837;46.832;16.838;2022-07-30T11:38:06;26.00;65.40
32366;DHT22;18837;46.832;16.838;2022-07-30T11:40:37;26.00;65.40
32366;DHT22;18837;46.832;16.838;2022-07-30T11:43:24;26.10;65.20
32366;DHT22;18837;46.832;16.838;2022-07-30T11:48:36;26.20;65.30
32366;DHT22;18837;46.832;16.838;2022-07-30T11:51:03;26.30;66.30
32366;DHT22;18837;46.832;16.838;2022-07-30T11:53:29;26.30;66.60
32366;DHT22;18837;46.832;16.838;2022-07-30T11:56:01;26.30;66.00
32366;DHT22;18837;46.832;16.838;2022-07-30T12:01:00;26.30;66.30
32366;DHT22;18837;46.832;16.838;2022-07-30T12:03:26;26.40;67.60
32366;DHT22;18837;46.832;16.838;2022-07-30T12:05:53;26.40;66.40
32366;DHT22;18837;46.832;16.838;2022-07-30T12:08:20;26.40;66.30
32366;DHT22;18837;46.832;16.838;2022-07-30T12:11:12;26.40;66.40
32366;DHT22;18837;46.832;16.838;2022-07-30T12:13:39;26.50;65.10
32366;DHT22;18837;46.832;16.838;2022-07-30T12:16:15;26.50;66.30
32366;DHT22;18837;46.832;16.838;2022-07-30T12:18:42;26.50;66.80
32366;DHT22;18837;46.832;16.838;2022-07-30T12:21:09;26.60;66.30
32366;DHT22;18837;46.832;16.838;2022-07-30T12:23:40;26.60;66.00
32366;DHT22;18837;46.832;16.838;2022-07-30T12:26:30;26.60;65.80
32366;DHT22;18837;46.832;16.838;2022-07-30T12:32:15;26.70;65.10
32366;DHT22;18837;46.832;16.838;2022-07-30T12:34:54;26.70;66.10
32366;DHT22;18837;46.832;16.838;2022-07-30T12:37:20;26.70;66.00
32366;DHT22;18837;46.832;16.838;2022-07-30T12:39:46;26.60;65.70
32366;DHT22;18837;46.832;16.838;2022-07-30T12:42:17;26.60;65.70
32366;DHT22;18837;46.832;16.838;2022-07-30T12:44:43;26.60;66.20
32366;DHT22;18837;46.832;16.838;2022-07-30T12:47:25;26.60;66.20
32366;DHT22;18837;46.832;16.838;2022-07-30T12:49:56;26.60;66.40
32366;DHT22;18837;46.832;16.838;2022-07-30T12:52:30;26.50;66.30
32366;DHT22;18837;46.832;16.838;2022-07-30T12:55:03;26.40;65.40
32366;DHT22;18837;46.832;16.838;2022-07-30T12:57:54;26.40;67.00
32366;DHT22;18837;46.832;16.838;2022-07-30T13:00:26;26.40;65.20
32366;DHT22;18837;46.832;16.838;2022-07-30T13:02:58;26.40;66.20
32366;DHT22;18837;46.832;16.838;2022-07-30T13:05:44;26.40;66.80
32366;DHT22;18837;46.832;16.838;2022-07-30T13:08:10;26.50;66.80
32366;DHT22;18837;46.832;16.838;2022-07-30T13:10:36;26.60;66.40
32366;DHT22;18837;46.832;16.838;2022-07-30T13:13:02;26.70;66.40
32366;DHT22;18837;46.832;16.838;2022-07-30T13:15:28;26.70;66.50
32366;DHT22;18837;46.832;16.838;2022-07-30T13:21:37;26.80;65.30
32366;DHT22;18837;46.832;16.838;2022-07-30T13:24:03;26.90;65.00
32366;DHT22;18837;46.832;16.838;2022-07-30T13:26:29;27.00;65.60
32366;DHT22;18837;46.832;16.838;2022-07-30T13:28:56;27.10;65.80
32366;DHT22;18837;46.832;16.838;2022-07-30T13:31:23;27.20;65.80
32366;DHT22;18837;46.832;16.838;2022-07-30T13:33:48;27.30;65.60
32366;DHT22;18837;46.832;16.838;2022-07-30T13:36:15;27.30;65.20
32366;DHT22;18837;46.832;16.838;2022-07-30T13:38:42;27.40;65.00
32366;DHT22;18837;46.832;16.838;2022-07-30T13:41:08;27.50;65.00
32366;DHT22;18837;46.832;16.838;2022-07-30T13:43:34;27.60;64.70
32366;DHT22;18837;46.832;16.838;2022-07-30T13:46:04;27.70;64.60
32366;DHT22;18837;46.832;16.838;2022-07-30T13:48:31;27.70;64.20
32366;DHT22;18837;46.832;16.838;2022-07-30T13:50:59;27.70;64.30
32366;DHT22;18837;46.832;16.838;2022-07-30T13:53:25;27.80;64.10
32366;DHT22;18837;46.832;16.838;2022-07-30T13:55:51;27.80;63.80
32366;DHT22;18837;46.832;16.838;2022-07-30T13:58:17;28.00;63.90
32366;DHT22;18837;46.832;16.838;2022-07-30T14:00:43;27.90;63.60
32366;DHT22;18837;46.832;16.838;2022-07-30T14:03:13;27.90;63.30
32366;DHT22;18837;46.832;16.838;2022-07-30T14:05:39;27.90;63.30
32366;DHT22;18837;46.832;16.838;2022-07-30T14:08:06;27.90;63.30
32366;DHT22;18837;46.832;16.838;2022-07-30T14:10:36;27.90;63.40
32366;DHT22;18837;46.832;16.838;2022-07-30T14:13:03;27.90;63.40
32366;DHT22;18837;46.832;16.838;2022-07-30T14:15:30;27.90;63.30
32366;DHT22;18837;46.832;16.838;2022-07-30T14:17:56;27.90;62.70
32366;DHT22;18837;46.832;16.838;2022-07-30T14:20:53;27.90;62.90
32366;DHT22;18837;46.832;16.838;2022-07-30T14:23:20;27.90;62.70
32366;DHT22;18837;46.832;16.838;2022-07-30T14:25:45;28.00;63.10
32366;DHT22;18837;46.832;16.838;2022-07-30T14:28:11;28.00;63.00
32366;DHT22;18837;46.832;16.838;2022-07-30T14:30:37;28.00;63.00
32366;DHT22;18837;46.832;16.838;2022-07-30T14:33:03;28.10;62.70
32366;DHT22;18837;46.832;16.838;2022-07-30T14:35:29;28.10;62.40
32366;DHT22;18837;46.832;16.838;2022-07-30T14:41:30;28.20;61.90
32366;DHT22;18837;46.832;16.838;2022-07-30T14:43:56;28.20;61.90
32366;DHT22;18837;46.832;16.838;2022-07-30T14:46:22;28.10;62.50
32366;DHT22;18837;46.832;16.838;2022-07-30T14:48:48;28.10;61.90
32366;DHT22;18837;46.832;16.838;2022-07-30T14:51:14;28.10;62.30
32366;DHT22;18837;46.832;16.838;2022-07-30T14:53:40;28.00;62.40
32366;DHT22;18837;46.832;16.838;2022-07-30T14:56:28;28.00;62.50
32366;DHT22;18837;46.832;16.838;2022-07-30T14:58:54;28.00;62.60
32366;DHT22;18837;46.832;16.838;2022-07-30T15:01:20;28.10;63.00
32366;DHT22;18837;46.832;16.838;2022-07-30T15:03:46;28.00;62.80
32366;DHT22;18837;46.832;16.838;2022-07-30T15:06:12;28.00;63.00
32366;DHT22;18837;46.832;16.838;2022-07-30T15:08:39;28.00;63.00
32366;DHT22;18837;46.832;16.838;2022-07-30T15:11:30;28.00;62.90
32366;DHT22;18837;46.832;16.838;2022-07-30T15:17:13;27.90;62.60
32366;DHT22;18837;46.832;16.838;2022-07-30T15:19:39;27.90;63.00
32366;DHT22;18837;46.832;16.838;2022-07-30T15:22:05;27.90;63.10
32366;DHT22;18837;46.832;16.838;2022-07-30T15:24:31;27.90;63.20
32366;DHT22;18837;46.832;16.838;2022-07-30T15:26:57;27.90;63.30
32366;DHT22;18837;46.832;16.838;2022-07-30T15:29:23;27.90;63.30
32366;DHT22;18837;46.832;16.838;2022-07-30T15:32:07;27.90;63.50
32366;DHT22;18837;46.832;16.838;2022-07-30T15:34:33;27.80;63.40
32366;DHT22;18837;46.832;16.838;2022-07-30T15:37:00;27.80;63.00
32366;DHT22;18837;46.832;16.838;2022-07-30T15:39:26;27.90;63.50
32366;DHT22;18837;46.832;16.838;2022-07-30T15:41:54;27.80;63.50
32366;DHT22;18837;46.832;16.838;2022-07-30T15:44:20;27.70;63.30
32366;DHT22;18837;46.832;16.838;2022-07-30T15:50:20;27.70;63.10
32366;DHT22;18837;46.832;16.838;2022-07-30T15:52:46;27.70;63.60
32366;DHT22;18837;46.832;16.838;2022-07-30T15:55:11;27.70;63.80
32366;DHT22;18837;46.832;16.838;2022-07-30T15:57:37;27.70;63.80
32366;DHT22;18837;46.832;16.838;2022-07-30T16:00:04;27.70;63.90
32366;DHT22;18837;46.832;16.838;2022-07-30T16:02:32;27.70;63.80
32366;DHT22;18837;46.832;16.838;2022-07-30T16:05:21;27.70;63.70
32366;DHT22;18837;46.832;16.838;2022-07-30T16:07:47;27.70;62.90
32366;DHT22;18837;46.832;16.838;2022-07-30T16:10:13;27.70;63.70
32366;DHT22;18837;46.832;16.838;2022-07-30T16:12:38;27.70;63.70
32366;DHT22;18837;46.832;16.838;2022-07-30T16:15:05;27.70;63.70
32366;DHT22;18837;46.832;16.838;2022-07-30T16:17:31;27.70;63.40
32366;DHT22;18837;46.832;16.838;2022-07-30T16:26:19;27.70;63.00
32366;DHT22;18837;46.832;16.838;2022-07-30T16:28:44;27.80;63.60
32366;DHT22;18837;46.832;16.838;2022-07-30T16:31:10;27.80;63.40
32366;DHT22;18837;46.832;16.838;2022-07-30T16:33:35;27.80;63.20
32366;DHT22;18837;46.832;16.838;2022-07-30T16:36:01;27.80;63.30
32366;DHT22;18837;46.832;16.838;2022-07-30T16:38:27;27.90;63.60
32366;DHT22;18837;46.832;16.838;2022-07-30T16:41:13;27.80;63.30
32366;DHT22;18837;46.832;16.838;2022-07-30T16:43:39;27.80;63.40
32366;DHT22;18837;46.832;16.838;2022-07-30T16:46:05;27.80;63.30
32366;DHT22;18837;46.832;16.838;2022-07-30T16:48:31;27.70;63.40
32366;DHT22;18837;46.832;16.838;2022-07-30T16:50:57;27.70;63.30
32366;DHT22;18837;46.832;16.838;2022-07-30T16:53:23;27.70;63.30
32366;DHT22;18837;46.832;16.838;2022-07-30T16:59:13;27.70;62.80
32366;DHT22;18837;46.832;16.838;2022-07-30T17:01:41;27.70;63.60
32366;DHT22;18837;46.832;16.838;2022-07-30T17:04:07;27.60;63.30
32366;DHT22;18837;46.832;16.838;2022-07-30T17:06:32;27.60;63.00
32366;DHT22;18837;46.832;16.838;2022-07-30T17:08:59;27.60;63.30
32366;DHT22;18837;46.832;16.838;2022-07-30T17:11:25;27.50;63.30
32366;DHT22;18837;46.832;16.838;2022-07-30T17:13:51;27.50;63.80
32366;DHT22;18837;46.832;16.838;2022-07-30T17:16:17;27.40;64.00
32366;DHT22;18837;46.832;16.838;2022-07-30T17:18:46;27.30;64.70
32366;DHT22;18837;46.832;16.838;2022-07-30T17:21:12;27.10;65.10
32366;DHT22;18837;46.832;16.838;2022-07-30T17:23:38;27.10;64.90
32366;DHT22;18837;46.832;16.838;2022-07-30T17:26:04;27.00;65.20
32366;DHT22;18837;46.832;16.838;2022-07-30T17:28:55;27.00;65.40
32366;DHT22;18837;46.832;16.838;2022-07-30T17:31:49;26.90;65.40
32366;DHT22;18837;46.832;16.838;2022-07-30T17:34:27;26.80;65.20
32366;DHT22;18837;46.832;16.838;2022-07-30T17:36:53;26.80;65.90
32366;DHT22;18837;46.832;16.838;2022-07-30T17:39:21;26.70;65.90
32366;DHT22;18837;46.832;16.838;2022-07-30T17:41:48;26.70;66.40
32366;DHT22;18837;46.832;16.838;2022-07-30T17:44:14;26.70;66.60
32366;DHT22;18837;46.832;16.838;2022-07-30T17:46:39;26.60;66.50
32366;DHT22;18837;46.832;16.838;2022-07-30T17:49:11;26.60;66.40
32366;DHT22;18837;46.832;16.838;2022-07-30T17:51:37;26.60;66.20
32366;DHT22;18837;46.832;16.838;2022-07-30T17:54:05;26.70;66.60
32366;DHT22;18837;46.832;16.838;2022-07-30T17:56:35;26.70;66.20
32366;DHT22;18837;46.832;16.838;2022-07-30T17:59:07;26.70;65.90
32366;DHT22;18837;46.832;16.838;2022-07-30T18:01:33;26.70;65.50
32366;DHT22;18837;46.832;16.838;2022-07-30T18:04:20;26.70;66.00
32366;DHT22;18837;46.832;16.838;2022-07-30T18:07:08;26.70;65.40
32366;DHT22;18837;46.832;16.838;2022-07-30T18:09:46;26.70;65.30
32366;DHT22;18837;46.832;16.838;2022-07-30T18:12:12;26.70;65.80
32366;DHT22;18837;46.832;16.838;2022-07-30T18:14:37;26.70;66.40
32366;DHT22;18837;46.832;16.838;2022-07-30T18:17:03;26.70;66.10
32366;DHT22;18837;46.832;16.838;2022-07-30T18:19:29;26.60;67.10
32366;DHT22;18837;46.832;16.838;2022-07-30T18:21:55;26.60;66.70
32366;DHT22;18837;46.832;16.838;2022-07-30T18:24:21;26.60;66.40
32366;DHT22;18837;46.832;16.838;2022-07-30T18:26:47;26.60;66.20
32366;DHT22;18837;46.832;16.838;2022-07-30T18:29:13;26.50;66.60
32366;DHT22;18837;46.832;16.838;2022-07-30T18:31:38;26.50;66.60
32366;DHT22;18837;46.832;16.838;2022-07-30T18:34:04;26.50;66.90
32366;DHT22;18837;46.832;16.838;2022-07-30T18:36:30;26.40;66.80